createdAt,value
2023-01-21T00:01:13.189Z,10.30
2023-01-21T00:04:14.603Z,11.13
2023-01-21T00:07:16.016Z,11.27
2023-01-21T00:10:18.756Z,10.37
2023-01-21T00:13:20.277Z,11.87
2023-01-21T00:16:21.698Z,11.93
2023-01-21T00:19:23.102Z,12.40
2023-01-21T00:22:24.547Z,13.53
2023-01-21T00:25:26.008Z,13.27
2023-01-21T00:28:29.083Z,14.27
2023-01-21T00:31:30.649Z,14.63
2023-01-21T00:34:32.071Z,13.93
2023-01-21T00:37:33.744Z,14.40
2023-01-21T00:40:35.123Z,15.03
2023-01-21T00:43:37.009Z,15.03
2023-01-21T00:46:38.540Z,14.83
2023-01-21T00:49:39.970Z,14.27
2023-01-21T00:52:41.368Z,13.77
2023-01-21T00:55:42.773Z,14.63
2023-01-21T00:58:44.388Z,15.83
2023-01-21T01:01:46.099Z,15.57
2023-01-21T01:04:47.564Z,15.20
2023-01-21T01:07:50.201Z,14.97
2023-01-21T01:10:54.390Z,14.57
2023-01-21T01:13:56.439Z,15.10
2023-01-21T01:16:57.832Z,15.80
2023-01-21T01:19:59.233Z,15.60
2023-01-21T01:23:00.632Z,14.37
2023-01-21T01:26:04.905Z,15.07
2023-01-21T01:29:07.050Z,15.63
2023-01-21T01:32:09.315Z,14.40
2023-01-21T01:35:10.708Z,14.70
2023-01-21T01:38:13.726Z,14.37
2023-01-21T01:41:18.268Z,15.17
2023-01-21T01:44:57.065Z,14.83
2023-01-21T01:48:03.072Z,15.17
2023-01-21T01:51:07.339Z,14.53
2023-01-21T01:54:10.767Z,14.50
2023-01-21T01:57:14.721Z,16.33
2023-01-21T02:00:17.128Z,15.83
2023-01-21T02:03:38.164Z,16.23
2023-01-21T02:06:40.722Z,16.03
2023-01-21T02:09:42.229Z,16.10
2023-01-21T02:12:44.319Z,15.80
2023-01-21T02:16:01.072Z,16.27
2023-01-21T02:19:39.686Z,16.47
2023-01-21T02:22:54.988Z,15.27
2023-01-21T02:26:21.102Z,15.77
2023-01-21T02:29:47.335Z,16.93
2023-01-21T02:33:32.630Z,17.43
2023-01-21T02:36:53.530Z,16.40
2023-01-21T02:40:00.756Z,16.43
2023-01-21T02:43:18.271Z,16.57
2023-01-21T02:46:33.997Z,16.27
2023-01-21T02:50:14.416Z,15.00
2023-01-21T02:53:31.026Z,15.50
2023-01-21T02:56:32.435Z,15.83
2023-01-21T02:59:35.071Z,15.60
2023-01-21T03:03:07.221Z,14.63
2023-01-21T03:06:08.574Z,14.80
2023-01-21T03:09:24.406Z,15.37
2023-01-21T03:12:46.157Z,15.53
2023-01-21T03:16:14.682Z,16.57
2023-01-21T03:19:18.387Z,15.60
2023-01-21T03:22:24.908Z,15.50
2023-01-21T03:25:29.440Z,15.40
2023-01-21T03:28:34.391Z,14.70
2023-01-21T03:31:39.246Z,14.73
2023-01-21T03:34:44.567Z,15.63
2023-01-21T03:37:58.351Z,16.40
2023-01-21T03:41:09.499Z,15.20
2023-01-21T03:44:10.979Z,15.30
2023-01-21T03:47:25.258Z,14.83
2023-01-21T03:50:34.172Z,15.07
2023-01-21T03:53:35.701Z,15.53
2023-01-21T03:56:37.135Z,15.40
2023-01-21T03:59:38.641Z,14.37
2023-01-21T04:02:40.068Z,15.50
2023-01-21T04:05:41.453Z,15.03
2023-01-21T04:08:43.200Z,15.73
2023-01-21T04:11:44.599Z,16.03
2023-01-21T04:14:46.084Z,15.70
2023-01-21T04:17:47.463Z,14.30
2023-01-21T04:20:49.701Z,14.27
2023-01-21T04:23:51.096Z,14.63
2023-01-21T04:26:52.977Z,14.83
2023-01-21T04:29:54.425Z,13.60
2023-01-21T04:32:55.823Z,13.33
2023-01-21T04:35:59.427Z,13.23
2023-01-21T04:39:00.801Z,15.10
2023-01-21T04:42:02.226Z,14.63
2023-01-21T04:45:03.971Z,14.30
2023-01-21T04:48:05.524Z,14.33
2023-01-21T04:51:07.793Z,14.20
2023-01-21T04:54:11.133Z,14.40
2023-01-21T04:57:12.549Z,14.93
2023-01-21T05:00:14.560Z,14.60
2023-01-21T05:03:16.354Z,13.80
2023-01-21T05:06:17.844Z,13.67
2023-01-21T05:09:19.241Z,13.57
2023-01-21T05:12:20.629Z,12.70
2023-01-21T05:15:22.020Z,12.93
2023-01-21T05:18:23.428Z,12.87
2023-01-21T05:21:25.017Z,13.23
2023-01-21T05:24:26.438Z,12.40
2023-01-21T05:27:28.205Z,12.30
2023-01-21T05:30:29.678Z,12.20
2023-01-21T05:33:32.796Z,11.60
2023-01-21T05:36:34.191Z,11.43
2023-01-21T05:39:35.655Z,11.50
2023-01-21T05:42:37.041Z,10.63
2023-01-21T05:45:38.433Z,11.33
2023-01-21T05:48:39.847Z,11.20
2023-01-21T05:51:41.312Z,12.10
2023-01-21T05:54:59.923Z,12.00
2023-01-21T05:58:02.650Z,11.10
2023-01-21T06:01:04.316Z,12.13
2023-01-21T06:04:05.747Z,11.50
2023-01-21T06:07:07.141Z,11.83
2023-01-21T06:10:09.062Z,12.17
2023-01-21T06:13:15.017Z,12.83
2023-01-21T06:16:16.415Z,12.53
2023-01-21T06:19:18.164Z,13.10
2023-01-21T06:22:19.820Z,13.57
2023-01-21T06:25:21.210Z,12.70
2023-01-21T06:28:22.623Z,14.27
2023-01-21T06:31:24.361Z,11.67
2023-01-21T06:34:25.882Z,11.17
2023-01-21T06:37:27.315Z,10.80
2023-01-21T06:40:28.801Z,9.47
2023-01-21T06:43:30.290Z,11.57
2023-01-21T06:46:31.990Z,11.60
2023-01-21T06:49:33.441Z,11.87
2023-01-21T06:52:34.849Z,11.90
2023-01-21T06:55:36.239Z,10.90
2023-01-21T06:58:37.626Z,11.53
2023-01-21T07:01:39.237Z,10.83
2023-01-21T07:04:40.677Z,10.90
2023-01-21T07:07:42.191Z,11.03
2023-01-21T07:10:44.316Z,11.07
2023-01-21T07:13:46.979Z,10.37
2023-01-21T07:16:48.353Z,10.33
2023-01-21T07:19:49.854Z,10.77
2023-01-21T07:22:51.419Z,10.63
2023-01-21T07:25:52.822Z,10.93
2023-01-21T07:28:54.314Z,10.53
2023-01-21T07:31:55.791Z,11.00
2023-01-21T07:34:57.289Z,11.33
2023-01-21T07:37:58.692Z,10.80
2023-01-21T07:41:00.112Z,10.97
2023-01-21T07:44:01.553Z,12.87
2023-01-21T07:47:03.054Z,12.90
2023-01-21T07:50:08.416Z,12.87
2023-01-21T07:53:11.789Z,11.70
2023-01-21T07:56:13.628Z,11.47
2023-01-21T07:59:15.079Z,12.60
2023-01-21T08:02:16.610Z,11.80
2023-01-21T08:05:18.338Z,12.33
2023-01-21T08:08:20.073Z,12.20
2023-01-21T08:11:21.452Z,11.83
2023-01-21T08:14:22.971Z,12.20
2023-01-21T08:17:24.359Z,12.17
2023-01-21T08:20:25.872Z,11.87
2023-01-21T08:23:27.393Z,12.13
2023-01-21T08:26:28.771Z,12.53
2023-01-21T08:29:30.347Z,12.80
2023-01-21T08:32:31.739Z,11.93
2023-01-21T08:35:33.329Z,12.43
2023-01-21T08:38:35.029Z,13.27
2023-01-21T08:41:36.422Z,12.77
2023-01-21T08:44:37.839Z,11.83
2023-01-21T08:47:39.276Z,12.57
2023-01-21T08:50:40.767Z,13.63
2023-01-21T08:53:42.180Z,12.87
2023-01-21T08:56:43.654Z,12.67
2023-01-21T08:59:45.022Z,13.63
2023-01-21T09:02:46.519Z,13.37
2023-01-21T09:05:48.346Z,12.90
2023-01-21T09:08:49.980Z,12.63
2023-01-21T09:11:52.663Z,13.37
2023-01-21T09:14:54.087Z,12.37
2023-01-21T09:17:55.535Z,13.00
2023-01-21T09:21:04.972Z,13.90
2023-01-21T09:24:06.835Z,13.37
2023-01-21T09:27:08.725Z,13.63
2023-01-21T09:30:10.721Z,14.10
2023-01-21T09:33:13.802Z,13.20
2023-01-21T09:36:18.957Z,14.00
2023-01-21T09:39:20.360Z,14.47
2023-01-21T09:42:32.407Z,14.00
2023-01-21T09:45:34.053Z,14.20
2023-01-21T09:48:41.825Z,13.53
2023-01-21T09:51:52.491Z,14.60
2023-01-21T09:54:55.657Z,14.80
2023-01-21T09:58:40.312Z,14.43
2023-01-21T10:01:42.858Z,14.47
2023-01-21T10:05:35.572Z,15.00
2023-01-21T10:08:58.941Z,14.47
2023-01-21T10:12:00.297Z,15.83
2023-01-21T10:15:21.078Z,15.27
2023-01-21T10:18:31.128Z,15.17
2023-01-21T10:21:45.264Z,16.30
2023-01-21T10:24:52.044Z,15.67
2023-01-21T10:27:55.121Z,15.83
2023-01-21T10:31:04.438Z,16.23
2023-01-21T10:34:18.099Z,15.73
2023-01-21T10:37:48.125Z,15.37
2023-01-21T10:41:00.264Z,16.07
2023-01-21T10:44:07.779Z,16.17
2023-01-21T10:47:37.745Z,15.40
2023-01-21T10:50:54.892Z,15.63
2023-01-21T10:54:09.767Z,16.57
2023-01-21T10:57:43.597Z,16.30
2023-01-21T11:00:49.199Z,15.93
2023-01-21T11:03:53.366Z,16.53
2023-01-21T11:07:01.769Z,16.30
2023-01-21T11:10:05.956Z,17.37
2023-01-21T11:13:13.282Z,16.40
2023-01-21T11:16:39.463Z,17.80
2023-01-21T11:19:42.201Z,17.27
2023-01-21T11:22:45.481Z,16.53
2023-01-21T11:25:48.964Z,18.43
2023-01-21T11:29:07.083Z,17.07
2023-01-21T11:32:27.276Z,18.03
2023-01-21T11:35:28.704Z,18.10
2023-01-21T11:38:34.212Z,17.50
2023-01-21T11:41:36.259Z,17.03
2023-01-21T11:44:51.880Z,17.03
2023-01-21T11:47:53.853Z,16.30
2023-01-21T11:51:07.985Z,16.80
2023-01-21T11:54:20.634Z,17.30
2023-01-21T11:57:27.488Z,15.87
2023-01-21T12:00:36.247Z,16.07
2023-01-21T12:03:44.625Z,16.07
2023-01-21T12:06:48.073Z,17.03
2023-01-21T12:09:55.077Z,16.20
2023-01-21T12:13:28.925Z,15.90
2023-01-21T12:17:05.397Z,16.57
2023-01-21T12:20:20.894Z,15.70
2023-01-21T12:23:49.764Z,15.70
2023-01-21T12:27:09.688Z,15.80
2023-01-21T12:30:24.700Z,15.33
2023-01-21T12:33:32.204Z,15.83
2023-01-21T12:36:44.362Z,14.00
2023-01-21T12:39:48.843Z,15.70
2023-01-21T12:42:55.920Z,16.73
2023-01-21T12:46:10.390Z,16.03
2023-01-21T12:49:19.206Z,16.40
2023-01-21T12:52:36.924Z,18.20
2023-01-21T12:55:58.470Z,13.67
2023-01-21T12:59:08.715Z,15.50
2023-01-21T13:02:27.406Z,14.90
2023-01-21T13:05:46.177Z,13.57
2023-01-21T13:08:58.321Z,14.10
2023-01-21T13:12:05.399Z,14.70
2023-01-21T13:15:19.316Z,14.23
2023-01-21T13:18:32.395Z,14.77
2023-01-21T13:21:49.025Z,14.77
2023-01-21T13:24:59.715Z,15.43
2023-01-21T13:28:01.268Z,15.77
2023-01-21T13:31:20.129Z,16.13
2023-01-21T13:34:52.956Z,14.97
2023-01-21T13:38:20.579Z,16.00
2023-01-21T13:41:40.091Z,15.40
2023-01-21T13:44:47.934Z,16.77
2023-01-21T13:47:58.605Z,16.37
2023-01-21T13:51:25.671Z,16.47
2023-01-21T13:54:33.039Z,15.43
2023-01-21T13:57:54.678Z,15.50
2023-01-21T14:01:02.373Z,15.73
2023-01-21T14:04:12.449Z,14.43
2023-01-21T14:07:33.328Z,14.63
2023-01-21T14:10:50.606Z,13.70
2023-01-21T14:14:04.270Z,13.30
2023-01-21T14:17:47.603Z,14.00
2023-01-21T14:21:26.877Z,13.03
2023-01-21T14:24:42.878Z,12.27
2023-01-21T14:28:11.649Z,12.70
2023-01-21T14:31:22.535Z,11.87
2023-01-21T14:34:40.421Z,12.03
2023-01-21T14:37:47.193Z,11.40
2023-01-21T14:40:51.082Z,12.40
2023-01-21T14:43:52.912Z,12.07
2023-01-21T14:47:16.309Z,11.47
2023-01-21T14:50:53.459Z,12.70
2023-01-21T14:54:01.881Z,12.17
2023-01-21T14:57:18.314Z,13.50
2023-01-21T15:00:32.218Z,12.17
2023-01-21T15:03:43.307Z,11.73
2023-01-21T15:06:45.012Z,10.57
2023-01-21T15:09:55.841Z,13.50
2023-01-21T15:13:04.533Z,11.97
2023-01-21T15:16:32.777Z,12.70
2023-01-21T15:19:35.789Z,11.23
2023-01-21T15:22:40.828Z,11.33
2023-01-21T15:26:08.275Z,11.53
2023-01-21T15:29:22.851Z,11.90
2023-01-21T15:32:31.748Z,11.70
2023-01-21T15:35:36.081Z,11.30
2023-01-21T15:38:40.568Z,12.43
2023-01-21T15:42:02.993Z,12.10
2023-01-21T15:45:07.214Z,11.70
2023-01-21T15:48:40.710Z,12.13
2023-01-21T15:52:26.065Z,11.73
2023-01-21T15:56:00.753Z,11.50
2023-01-21T15:59:21.232Z,12.37
2023-01-21T16:02:32.308Z,11.03
2023-01-21T16:06:15.821Z,11.13
2023-01-21T16:09:37.985Z,10.57
2023-01-21T16:12:45.665Z,11.20
2023-01-21T16:16:31.657Z,11.47
2023-01-21T16:19:37.893Z,11.27
2023-01-21T16:22:43.429Z,11.73
2023-01-21T16:25:47.716Z,11.47
2023-01-21T16:28:49.648Z,11.80
2023-01-21T16:32:01.665Z,10.53
2023-01-21T16:35:04.622Z,11.90
2023-01-21T16:38:06.019Z,11.33
2023-01-21T16:41:07.353Z,14.10
2023-01-21T16:44:15.861Z,11.73
2023-01-21T16:47:25.623Z,9.97
2023-01-21T16:50:29.346Z,10.27
2023-01-21T16:53:30.747Z,9.93
2023-01-21T16:56:32.166Z,10.40
2023-01-21T16:59:42.251Z,10.57
2023-01-21T17:02:43.754Z,10.30
2023-01-21T17:05:46.171Z,10.23
2023-01-21T17:08:54.044Z,10.73
2023-01-21T17:11:57.960Z,11.03
2023-01-21T17:15:17.026Z,11.00
2023-01-21T17:18:27.355Z,10.60
2023-01-21T17:21:35.359Z,11.13
2023-01-21T17:24:44.107Z,12.57
2023-01-21T17:27:45.797Z,11.27
2023-01-21T17:30:47.254Z,11.33
2023-01-21T17:34:04.670Z,11.33
2023-01-21T17:37:42.663Z,12.70
2023-01-21T17:41:03.600Z,12.23
2023-01-21T17:44:18.262Z,12.37
2023-01-21T17:47:54.271Z,13.30
2023-01-21T17:51:13.679Z,13.67
2023-01-21T17:54:20.710Z,11.80
2023-01-21T17:57:35.633Z,11.00
2023-01-21T18:00:44.766Z,11.20
2023-01-21T18:03:46.233Z,12.27
2023-01-21T18:06:47.773Z,13.67
2023-01-21T18:09:53.807Z,13.20
2023-01-21T18:12:57.763Z,11.23
2023-01-21T18:15:59.221Z,11.33
2023-01-21T18:19:00.742Z,11.83
2023-01-21T18:22:04.037Z,11.33
2023-01-21T18:25:06.520Z,11.40
2023-01-21T18:28:18.467Z,10.80
2023-01-21T18:31:20.130Z,11.07
2023-01-21T18:34:21.638Z,10.63
2023-01-21T18:37:25.108Z,10.87
2023-01-21T18:40:26.703Z,11.67
2023-01-21T18:43:28.101Z,11.17
2023-01-21T18:46:29.612Z,10.23
2023-01-21T18:49:31.037Z,10.30
2023-01-21T18:52:32.557Z,10.47
2023-01-21T18:55:34.534Z,10.63
2023-01-21T18:58:35.942Z,10.43
2023-01-21T19:01:37.439Z,10.40
2023-01-21T19:04:38.926Z,10.67
2023-01-21T19:07:40.622Z,11.20
2023-01-21T19:10:42.242Z,10.20
2023-01-21T19:13:43.746Z,10.37
2023-01-21T19:16:45.711Z,9.57
2023-01-21T19:19:47.096Z,10.13
2023-01-21T19:22:49.474Z,9.90
2023-01-21T19:25:55.613Z,10.43
2023-01-21T19:28:57.046Z,9.67
2023-01-21T19:31:58.457Z,10.50
2023-01-21T19:35:01.747Z,9.80
2023-01-21T19:38:09.556Z,10.40
2023-01-21T19:41:11.083Z,9.90
2023-01-21T19:44:12.439Z,10.03
2023-01-21T19:47:26.528Z,9.50
2023-01-21T19:50:28.035Z,9.20
2023-01-21T19:53:29.439Z,9.67
2023-01-21T19:56:30.881Z,9.27
2023-01-21T19:59:34.665Z,10.63
2023-01-21T20:02:36.079Z,11.23
2023-01-21T20:05:37.600Z,10.40
2023-01-21T20:08:39.085Z,10.27
2023-01-21T20:11:40.789Z,10.80
2023-01-21T20:14:42.213Z,11.13
2023-01-21T20:17:50.495Z,10.03
2023-01-21T20:20:53.162Z,10.00
2023-01-21T20:23:54.584Z,10.80
2023-01-21T20:26:55.971Z,10.03
2023-01-21T20:30:14.837Z,9.83
2023-01-21T20:33:20.790Z,9.80
2023-01-21T20:36:24.746Z,10.87
2023-01-21T20:39:26.365Z,10.00
2023-01-21T20:42:28.105Z,10.10
2023-01-21T20:45:44.435Z,10.80
2023-01-21T20:48:46.065Z,11.07
2023-01-21T20:51:47.492Z,11.07
2023-01-21T20:54:49.592Z,11.07
2023-01-21T20:57:51.030Z,11.90
2023-01-21T21:00:52.477Z,11.90
2023-01-21T21:03:53.992Z,12.27
2023-01-21T21:06:55.562Z,11.57
2023-01-21T21:09:59.878Z,10.23
2023-01-21T21:13:01.653Z,11.00
2023-01-21T21:16:13.410Z,10.27
2023-01-21T21:19:14.819Z,10.97
2023-01-21T21:22:16.289Z,12.17
2023-01-21T21:25:23.186Z,11.43
2023-01-21T21:28:24.592Z,11.30
2023-01-21T21:31:32.485Z,11.37
2023-01-21T21:34:34.273Z,11.43
2023-01-21T21:37:35.664Z,11.83
2023-01-21T21:40:37.049Z,11.40
2023-01-21T21:43:41.411Z,10.77
2023-01-21T21:47:01.967Z,11.10
2023-01-21T21:50:03.662Z,11.60
2023-01-21T21:53:05.111Z,12.00
2023-01-21T21:56:15.268Z,12.77
2023-01-21T21:59:16.671Z,10.77
2023-01-21T22:02:19.207Z,11.17
2023-01-21T22:05:20.770Z,11.80
2023-01-21T22:08:22.385Z,12.60
2023-01-21T22:11:24.462Z,12.80
2023-01-21T22:14:25.873Z,11.10
2023-01-21T22:17:27.580Z,10.87
2023-01-21T22:20:28.991Z,10.60
2023-01-21T22:23:31.847Z,11.30
2023-01-21T22:26:35.587Z,11.20
2023-01-21T22:29:36.952Z,11.77
2023-01-21T22:32:38.337Z,10.50
2023-01-21T22:35:40.355Z,11.10
2023-01-21T22:38:42.503Z,10.97
2023-01-21T22:41:44.097Z,11.70
2023-01-21T22:44:45.551Z,11.03
2023-01-21T22:47:46.921Z,11.10
2023-01-21T22:50:56.141Z,11.83
2023-01-21T22:53:59.945Z,10.90
2023-01-21T22:57:01.347Z,11.10
2023-01-21T23:00:03.872Z,12.07
2023-01-21T23:03:07.196Z,10.83
2023-01-21T23:06:08.619Z,10.97
2023-01-21T23:09:14.889Z,10.47
2023-01-21T23:12:19.166Z,10.90
2023-01-21T23:15:22.071Z,11.40
2023-01-21T23:18:25.683Z,12.77
2023-01-21T23:21:27.081Z,10.43
2023-01-21T23:24:28.495Z,11.53
2023-01-21T23:27:29.879Z,11.10
2023-01-21T23:30:32.875Z,10.87
2023-01-21T23:33:35.056Z,11.00
2023-01-21T23:36:36.445Z,10.70
2023-01-21T23:39:38.079Z,10.90
2023-01-21T23:42:39.458Z,10.67
2023-01-21T23:45:40.837Z,10.77
2023-01-21T23:48:42.507Z,11.50
2023-01-21T23:51:44.716Z,11.40
2023-01-21T23:54:46.270Z,11.03
2023-01-21T23:57:47.673Z,10.50
